Time;durP1;ratioP1;P1;durP2;ratioP2;P2;SDS_P1;SDS_P2;PMS_P1;PMS_P2;Temp;Humidity;BMP_temperature;BMP_pressure;BME280_temperature;BME280_humidity;BME280_pressure;Samples;Min_cycle;Max_cycle;Signal;HPM_P1;HPM_P2
2022/10/26 00:00:08;;;;;;;13.90;5.53;;;;;;;16.61;80.71;101312.44;5017412;28;20441;-81
2022/10/26 00:02:56;;;;;;;11.90;5.47;;;;;;;16.63;80.07;101303.88;5012761;28;20049;-82
2022/10/26 00:05:42;;;;;;;13.40;5.72;;;;;;;16.76;79.27;101310.97;5020327;28;20053;-83
2022/10/26 00:08:26;;;;;;;11.07;5.13;;;;;;;16.63;79.47;101306.63;5022596;28;20254;-84
2022/10/26 00:11:12;;;;;;;12.38;4.43;;;;;;;16.40;81.28;101300.72;5018074;28;20417;-83
2022/10/26 00:13:56;;;;;;;17.23;5.97;;;;;;;16.37;81.88;101293.16;5017652;28;20073;-83
2022/10/26 00:16:41;;;;;;;12.48;5.90;;;;;;;16.41;81.82;101317.97;5016768;28;20049;-82
2022/10/26 00:19:25;;;;;;;20.98;6.63;;;;;;;16.49;81.26;101323.38;5013396;28;20057;-82
2022/10/26 00:22:10;;;;;;;;;;;;;;;16.53;80.59;101323.50;5016595;28;20048;-83
2022/10/26 00:24:55;;;;;;;10.40;5.13;;;;;;;16.55;79.54;101327.53;5015527;28;19913;-83
2022/10/26 00:27:39;;;;;;;11.45;4.05;;;;;;;16.38;80.16;101332.38;5018611;28;20059;-80
2022/10/26 00:30:24;;;;;;;;;;;;;;;16.37;78.78;101339.81;5015008;28;20056;-82
2022/10/26 00:33:12;;;;;;;14.93;5.40;;;;;;;16.27;79.39;101332.81;5015199;28;19913;-83
2022/10/26 00:35:57;;;;;;;18.73;5.63;;;;;;;16.15;81.02;101329.25;5018860;28;20053;-82
2022/10/26 00:38:44;;;;;;;;;;;;;;;16.11;81.16;101328.28;5016924;28;20053;-83
2022/10/26 00:41:32;;;;;;;12.38;5.88;;;;;;;16.12;81.42;101330.69;5014709;28;19913;-83
2022/10/26 00:44:45;;;;;;;17.70;5.97;;;;;;;16.27;81.19;101335.56;5014980;28;20061;-82
2022/10/26 00:47:39;;;;;;;17.02;6.88;;;;;;;16.19;81.22;101330.97;5015895;28;20053;-83
2022/10/26 00:50:29;;;;;;;12.68;5.40;;;;;;;16.18;81.08;101334.84;5013544;28;20544;-82
2022/10/26 00:53:14;;;;;;;10.57;6.05;;;;;;;16.16;80.92;101320.66;5013102;28;20053;-81
2022/10/26 00:56:00;;;;;;;18.80;6.47;;;;;;;16.02;81.94;101325.63;5013674;28;20061;-81
2022/10/26 00:58:44;;;;;;;;;;;;;;;16.14;81.01;101308.44;5016328;28;20057;-80
2022/10/26 01:01:32;;;;;;;13.60;5.20;;;;;;;16.09;81.28;101305.91;5008256;28;19913;-81
2022/10/26 01:04:17;;;;;;;12.85;5.97;;;;;;;16.02;81.74;101309.19;5012854;28;20057;-79
2022/10/26 01:07:04;;;;;;;14.55;5.93;;;;;;;16.00;81.88;101300.47;5017162;28;20053;-80
2022/10/26 01:09:49;;;;;;;12.18;5.80;;;;;;;16.18;81.18;101295.63;5012979;28;20053;-80
2022/10/26 01:12:34;;;;;;;14.50;5.60;;;;;;;16.42;80.02;101294.88;5012989;28;20045;-80
2022/10/26 01:15:23;;;;;;;14.70;5.20;;;;;;;16.42;79.56;101286.63;5016774;28;20068;-81
2022/10/26 01:18:33;;;;;;;13.15;5.68;;;;;;;16.20;80.64;101277.66;5012246;28;20045;-82
2022/10/26 01:21:37;;;;;;;14.20;5.78;;;;;;;16.00;80.67;101275.00;5015647;28;20065;-82
2022/10/26 01:24:40;;;;;;;8.50;4.72;;;;;;;16.10;80.80;101272.59;5013005;28;20053;-82
2022/10/26 01:27:30;;;;;;;13.65;5.93;;;;;;;15.90;82.11;101267.19;5013498;28;20049;-83
2022/10/26 01:30:43;;;;;;;17.75;6.10;;;;;;;15.78;82.47;101279.72;5014111;28;20049;-82
2022/10/26 01:33:59;;;;;;;14.85;6.20;;;;;;;15.72;82.35;101270.09;5013847;28;20526;-80
2022/10/26 01:36:53;;;;;;;11.02;4.38;;;;;;;15.90;82.40;101269.94;5016681;28;20125;-81
2022/10/26 01:39:48;;;;;;;11.38;6.32;;;;;;;15.76;83.15;101265.53;5016552;28;20061;-81
2022/10/26 01:42:35;;;;;;;;;;;;;;;15.67;83.82;101264.00;5015980;28;20049;-81
2022/10/26 01:45:20;;;;;;;13.73;6.32;;;;;;;15.62;82.92;101267.75;5015586;28;19914;-83
2022/10/26 01:48:05;;;;;;;;;;;;;;;15.81;81.47;101276.28;5016451;28;20045;-82
2022/10/26 01:50:52;;;;;;;23.42;7.15;;;;;;;15.62;82.24;101280.66;5017465;28;20396;-82
2022/10/26 01:53:44;;;;;;;22.08;6.75;;;;;;;15.44;82.81;101276.44;5007789;28;20129;-81
2022/10/26 01:56:33;;;;;;;23.30;6.15;;;;;;;15.43;82.93;101285.78;5019060;28;20045;-82
2022/10/26 01:59:36;;;;;;;20.92;6.43;;;;;;;15.40;83.34;101289.97;5015444;28;20057;-81
2022/10/26 02:02:47;;;;;;;10.25;5.45;;;;;;;15.48;82.65;101280.09;5026158;28;20057;-82
2022/10/26 02:05:45;;;;;;;14.13;5.53;;;;;;;15.59;82.35;101273.91;5012378;28;20152;-82
2022/10/26 02:08:29;;;;;;;12.95;5.47;;;;;;;15.56;82.23;101280.06;5015080;28;20432;-83
2022/10/26 02:11:14;;;;;;;9.15;5.80;;;;;;;15.47;81.93;101267.53;5015231;28;20059;-81
2022/10/26 02:14:26;;;;;;;14.52;4.40;;;;;;;15.63;81.46;101268.56;5014497;28;20516;-81
2022/10/26 02:17:30;;;;;;;9.02;5.13;;;;;;;15.73;81.01;101265.41;5015023;28;20061;-81
2022/10/26 02:20:24;;;;;;;13.15;5.53;;;;;;;15.55;81.36;101272.97;5015733;28;20516;-83
2022/10/26 02:23:11;;;;;;;8.90;4.13;;;;;;;15.60;81.12;101272.75;5019327;28;20061;-83
2022/10/26 02:25:59;;;;;;;12.38;6.50;;;;;;;15.48;81.69;101266.41;4997588;28;20049;-83
2022/10/26 02:28:49;;;;;;;9.48;4.97;;;;;;;15.52;81.80;101272.84;4995112;28;20409;-83
2022/10/26 02:31:36;;;;;;;11.52;5.32;;;;;;;15.53;81.11;101275.25;4999561;28;20053;-85
2022/10/26 02:34:25;;;;;;;10.32;5.88;;;;;;;15.51;80.65;101279.41;5008312;28;20113;-83
2022/10/26 02:37:14;;;;;;;8.38;4.80;;;;;;;15.33;81.92;101278.75;5014992;28;20121;-84
2022/10/26 02:40:03;;;;;;;11.95;5.38;;;;;;;15.35;82.81;101285.50;5042834;22;20064;-82
2022/10/26 02:42:51;;;;;;;18.55;5.10;;;;;;;15.33;82.07;101278.75;5033632;28;20053;-83
2022/10/26 02:45:42;;;;;;;19.35;5.22;;;;;;;15.22;82.91;101281.09;5027947;28;20044;-82
2022/10/26 02:48:27;;;;;;;9.32;4.97;;;;;;;15.30;82.10;101276.66;5029164;28;20061;-83
2022/10/26 02:51:31;;;;;;;;;;;;;;;15.25;82.05;101274.13;5032231;28;20052;-82
2022/10/26 02:54:31;;;;;;;17.35;5.53;;;;;;;15.17;82.88;101269.50;5037632;28;19913;-82
2022/10/26 02:57:28;;;;;;;17.10;5.97;;;;;;;15.23;83.21;101271.72;5020338;28;20049;-83
2022/10/26 03:00:16;;;;;;;10.55;4.88;;;;;;;15.22;83.45;101266.56;5007759;28;20053;-82
2022/10/26 03:03:03;;;;;;;9.20;5.10;;;;;;;15.26;82.95;101254.63;5020780;28;20533;-83
2022/10/26 03:05:48;;;;;;;14.25;5.07;;;;;;;15.31;83.04;101267.31;5024609;28;20040;-83
2022/10/26 03:08:33;;;;;;;14.25;5.07;;;;;;;15.30;82.99;101271.19;5029014;28;20044;-84
2022/10/26 03:11:18;;;;;;;;;;;;;;;15.33;83.59;101273.28;5042580;28;20053;-83
2022/10/26 03:14:02;;;;;;;15.63;5.73;;;;;;;15.33;83.29;101276.03;5031889;28;19913;-85
2022/10/26 03:16:47;;;;;;;;;;;;;;;15.27;82.77;101278.16;5034214;28;20295;-84
2022/10/26 03:19:32;;;;;;;9.82;5.40;;;;;;;15.27;82.58;101278.16;5027162;28;19913;-83
2022/10/26 03:22:17;;;;;;;10.63;5.07;;;;;;;15.33;82.29;101276.03;5032958;28;20048;-83
2022/10/26 03:25:03;;;;;;;;;;;;;;;15.37;81.41;101288.72;5031163;28;20065;-83
2022/10/26 03:28:00;;;;;;;11.82;5.45;;;;;;;15.24;81.39;101286.22;5026466;28;19913;-83
2022/10/26 03:30:44;;;;;;;7.65;4.38;;;;;;;15.25;81.28;101285.88;5044845;28;20048;-83
2022/10/26 03:33:29;;;;;;;12.75;5.47;;;;;;;15.37;80.52;101280.50;5038251;28;20052;-83
2022/10/26 03:36:14;;;;;;;11.82;4.35;;;;;;;15.34;81.15;101277.59;5037442;28;20048;-83
2022/10/26 03:38:58;;;;;;;13.35;4.80;;;;;;;15.55;80.25;101261.19;5026738;28;20044;-82
2022/10/26 03:41:43;;;;;;;12.13;6.55;;;;;;;15.52;79.60;101253.66;5026804;28;20060;-83
2022/10/26 03:44:28;;;;;;;9.02;4.55;;;;;;;15.57;79.46;101258.94;5024015;28;20045;-83
2022/10/26 03:47:13;;;;;;;12.40;5.60;;;;;;;15.50;80.50;101270.38;5038371;28;20078;-82
2022/10/26 03:49:59;;;;;;;8.98;5.75;;;;;;;15.34;81.33;101261.16;5023895;28;20237;-82
2022/10/26 03:52:45;;;;;;;20.15;5.55;;;;;;;15.25;81.74;101269.44;5037358;28;20044;-82
2022/10/26 03:55:30;;;;;;;8.52;4.65;;;;;;;15.13;81.69;101263.09;5026237;28;20060;-82
2022/10/26 03:58:14;;;;;;;14.13;5.10;;;;;;;15.17;80.68;101259.38;5020659;28;20408;-83
2022/10/26 04:00:59;;;;;;;9.38;3.92;;;;;;;15.13;81.32;101266.66;5029499;28;20052;-82
2022/10/26 04:03:44;;;;;;;15.82;6.30;;;;;;;14.92;82.41;101263.88;5024024;28;20060;-84
2022/10/26 04:06:29;;;;;;;15.82;5.30;;;;;;;15.14;81.77;101262.75;5032049;28;20052;-82
2022/10/26 04:09:13;;;;;;;21.92;7.90;;;;;;;15.02;82.37;101267.34;5038533;28;20049;-83
2022/10/26 04:11:58;;;;;;;;;;;;;;;15.20;81.71;101264.16;5027628;28;20057;-83
2022/10/26 04:14:42;;;;;;;14.68;5.82;;;;;;;14.98;82.31;101275.44;5019254;28;19913;-83
2022/10/26 04:17:28;;;;;;;16.38;6.10;;;;;;;14.89;83.03;101266.44;5006517;28;20065;-83
2022/10/26 04:20:13;;;;;;;15.63;6.22;;;;;;;14.89;83.58;101277.41;5024504;28;20073;-83
2022/10/26 04:23:00;;;;;;;14.68;6.45;;;;;;;14.83;84.23;101289.69;5022703;28;20045;-83
2022/10/26 04:25:45;;;;;;;20.55;5.65;;;;;;;14.74;84.17;101286.16;5026126;28;20056;-82
2022/10/26 04:28:30;;;;;;;14.10;5.57;;;;;;;14.81;84.05;101286.47;5031024;28;20065;-83
2022/10/26 04:31:14;;;;;;;12.52;6.40;;;;;;;14.71;84.48;101286.84;5031740;28;20045;-83
2022/10/26 04:33:59;;;;;;;;;;;;;;;14.89;83.45;101286.41;5039807;28;20048;-83
2022/10/26 04:36:44;;;;;;;14.65;6.03;;;;;;;14.93;84.10;101295.56;5027239;28;19913;-83
2022/10/26 04:39:28;;;;;;;14.35;6.38;;;;;;;15.18;82.55;101291.09;5021267;28;20053;-83
2022/10/26 04:42:13;;;;;;;7.50;4.00;;;;;;;15.26;82.52;101286.69;5034558;28;20052;-83
2022/10/26 04:44:59;;;;;;;12.82;6.05;;;;;;;15.35;82.38;101290.97;5031816;28;20064;-83
2022/10/26 04:47:44;;;;;;;17.42;5.43;;;;;;;15.50;81.70;101288.78;5028955;28;20543;-83
2022/10/26 04:50:29;;;;;;;15.30;5.45;;;;;;;15.56;81.96;101284.72;5009946;28;20049;-81
2022/10/26 04:53:13;;;;;;;15.30;6.60;;;;;;;15.67;81.32;101284.00;5030830;28;20531;-82
2022/10/26 04:55:59;;;;;;;10.52;5.45;;;;;;;15.71;81.66;101281.38;5031025;28;20440;-84
2022/10/26 04:58:44;;;;;;;14.02;5.97;;;;;;;15.73;81.56;101287.34;5027005;28;20048;-85
2022/10/26 05:01:30;;;;;;;11.98;5.10;;;;;;;15.70;81.75;101274.28;5031568;28;20511;-84
2022/10/26 05:04:15;;;;;;;12.18;5.50;;;;;;;15.69;81.80;101273.50;5033835;28;20519;-84
2022/10/26 05:07:00;;;;;;;13.55;5.07;;;;;;;15.89;80.81;101266.38;5028388;28;20420;-84
2022/10/26 05:09:45;;;;;;;;;;;;;;;15.76;80.91;101267.47;5036843;28;20052;-84
2022/10/26 05:12:30;;;;;;;9.80;5.60;;;;;;;15.75;81.39;101261.16;5022092;28;20319;-84
2022/10/26 05:15:15;;;;;;;18.00;4.97;;;;;;;15.78;81.08;101252.28;5025748;28;20292;-83
2022/10/26 05:18:02;;;;;;;21.90;6.60;;;;;;;15.84;80.93;101258.38;5042043;28;20052;-84
2022/10/26 05:20:49;;;;;;;13.73;7.35;;;;;;;15.67;81.70;101253.03;5021229;28;20053;-85
2022/10/26 05:23:33;;;;;;;12.68;6.20;;;;;;;15.52;82.80;101251.72;5027266;28;20073;-85
2022/10/26 05:26:18;;;;;;;9.65;4.28;;;;;;;15.44;83.16;101252.53;5017369;28;20680;-85
2022/10/26 05:29:03;;;;;;;16.27;6.38;;;;;;;15.29;84.16;101248.47;5024463;28;20052;-85
2022/10/26 05:31:48;;;;;;;13.75;6.28;;;;;;;15.28;83.47;101254.28;5021550;28;20044;-85
2022/10/26 05:34:33;;;;;;;13.85;6.28;;;;;;;15.31;83.00;101253.63;5029343;28;20060;-84
2022/10/26 05:37:18;;;;;;;22.52;6.70;;;;;;;15.18;83.72;101262.91;5016096;28;20064;-83
2022/10/26 05:40:04;;;;;;;21.58;7.80;;;;;;;15.12;84.68;101262.28;5028303;28;20406;-84
2022/10/26 05:42:53;;;;;;;20.05;5.70;;;;;;;15.10;85.10;101267.28;5019538;28;20244;-85
2022/10/26 05:45:38;;;;;;;25.20;6.53;;;;;;;15.16;85.66;101282.41;5020784;28;20061;-84
2022/10/26 05:48:23;;;;;;;13.70;7.18;;;;;;;15.17;85.22;101277.72;5039588;28;20056;-84
2022/10/26 05:51:09;;;;;;;;;;;;;;;15.24;84.93;101275.25;5039909;28;20072;-84
2022/10/26 05:53:54;;;;;;;10.52;4.80;;;;;;;15.29;84.31;101284.09;5041585;28;20288;-85
2022/10/26 05:56:40;;;;;;;20.23;6.90;;;;;;;15.45;83.68;101300.75;5032851;28;20048;-85
2022/10/26 05:59:25;;;;;;;22.73;6.75;;;;;;;15.56;83.41;101307.47;5031270;28;20044;-84
2022/10/26 06:02:31;;;;;;;17.00;7.03;;;;;;;15.74;82.49;101314.44;5027925;28;20053;-83
2022/10/26 06:05:22;;;;;;;31.42;7.53;;;;;;;15.81;82.19;101306.44;5032369;28;20048;-84
2022/10/26 06:08:09;;;;;;;61.03;11.60;;;;;;;15.91;82.47;101307.97;5033430;28;20056;-84
2022/10/26 06:11:01;;;;;;;15.00;5.88;;;;;;;15.92;81.53;101306.03;5030839;28;20037;-83
2022/10/26 06:13:47;;;;;;;13.77;6.90;;;;;;;15.86;81.95;101299.97;5028207;28;20041;-83
2022/10/26 06:16:43;;;;;;;23.77;7.53;;;;;;;15.89;81.98;101303.97;5027043;28;20052;-84
2022/10/26 06:19:40;;;;;;;25.30;7.25;;;;;;;15.96;81.76;101317.94;5034706;28;20052;-84
2022/10/26 06:22:42;;;;;;;26.20;8.80;;;;;;;16.07;81.05;101317.19;5036964;28;20045;-83
2022/10/26 06:25:46;;;;;;;26.05;7.65;;;;;;;16.23;80.72;101329.16;5045823;28;20048;-84
2022/10/26 06:28:59;;;;;;;19.40;8.25;;;;;;;16.43;79.64;101335.72;5036436;28;20049;-83
2022/10/26 06:31:45;;;;;;;17.95;7.55;;;;;;;16.60;78.81;101335.56;5026889;28;20068;-84
2022/10/26 06:34:35;;;;;;;17.60;7.65;;;;;;;16.74;78.55;101338.00;5038338;28;20041;-84
2022/10/26 06:37:20;;;;;;;18.85;8.52;;;;;;;16.72;78.83;101345.75;5018361;28;20049;-84
2022/10/26 06:40:08;;;;;;;19.95;7.57;;;;;;;16.59;80.20;101341.41;5032628;28;20052;-84
2022/10/26 06:42:53;;;;;;;29.13;9.43;;;;;;;16.62;80.33;101351.69;5027976;28;20428;-85
2022/10/26 06:45:42;;;;;;;17.98;7.75;;;;;;;16.75;79.50;101347.03;5023653;28;20040;-84
2022/10/26 06:48:29;;;;;;;18.45;8.43;;;;;;;16.78;79.11;101352.63;5028892;28;20060;-84
2022/10/26 06:51:16;;;;;;;21.92;8.27;;;;;;;16.83;79.35;101346.13;5032542;28;20041;-84
2022/10/26 06:54:12;;;;;;;19.42;8.23;;;;;;;16.88;80.71;101351.38;5021063;28;20052;-85
2022/10/26 06:56:57;;;;;;;19.55;8.63;;;;;;;16.86;80.51;101350.94;5022347;28;20124;-84
2022/10/26 06:59:43;;;;;;;28.00;10.10;;;;;;;17.10;79.59;101354.50;5033577;28;20053;-84
2022/10/26 07:02:28;;;;;;;17.67;7.45;;;;;;;17.27;78.77;101356.19;5024144;28;20042;-84
2022/10/26 07:05:13;;;;;;;16.55;6.78;;;;;;;17.28;78.75;101363.31;5020915;28;20057;-84
2022/10/26 07:07:58;;;;;;;13.50;6.90;;;;;;;17.24;78.43;101356.09;5034390;28;20045;-85
2022/10/26 07:10:43;;;;;;;;;;;;;;;17.29;78.30;101355.84;5030633;28;20052;-84
2022/10/26 07:13:27;;;;;;;19.83;7.75;;;;;;;17.21;78.04;101354.84;5032841;28;19917;-85
2022/10/26 07:16:12;;;;;;;17.33;6.63;;;;;;;17.33;76.86;101365.00;5041344;28;20060;-84
2022/10/26 07:18:57;;;;;;;15.32;6.35;;;;;;;17.45;76.48;101363.06;5029555;28;20064;-84
2022/10/26 07:21:42;;;;;;;;;;;;;;;17.56;76.63;101360.66;5028996;28;20049;-86
2022/10/26 07:24:27;;;;;;;16.60;6.97;;;;;;;17.47;76.84;101368.25;5026172;28;19917;-85
2022/10/26 07:27:12;;;;;;;26.50;7.65;;;;;;;17.67;76.05;101364.56;5025270;28;20068;-84
2022/10/26 07:29:57;;;;;;;20.35;6.65;;;;;;;17.76;75.09;101358.91;5026866;28;20527;-84
2022/10/26 07:32:41;;;;;;;21.27;6.75;;;;;;;17.86;75.33;101362.00;5027666;28;20048;-84
2022/10/26 07:35:27;;;;;;;16.45;7.30;;;;;;;17.91;75.90;101366.44;5025102;28;20523;-84
2022/10/26 07:38:12;;;;;;;;;;;;;;;17.97;76.46;101373.31;5029706;28;20052;-83
2022/10/26 07:40:57;;;;;;;7.63;4.82;;;;;;;18.04;75.68;101369.94;5040016;28;19913;-84
2022/10/26 07:43:44;;;;;;;18.75;8.07;;;;;;;18.15;76.05;101376.56;5039478;28;20049;-86
2022/10/26 07:46:28;;;;;;;13.68;7.03;;;;;;;18.21;75.29;101377.91;5028212;28;20052;-86
2022/10/26 07:49:13;;;;;;;20.10;7.95;;;;;;;18.46;74.65;101389.63;5025960;28;20057;-86
2022/10/26 07:51:58;;;;;;;25.13;8.13;;;;;;;18.61;73.16;101389.69;5023448;28;20045;-85
2022/10/26 07:54:42;;;;;;;15.60;8.18;;;;;;;18.72;73.04;101396.28;5027883;28;20048;-86
2022/10/26 07:57:27;;;;;;;18.33;7.05;;;;;;;19.08;71.68;101408.22;5038326;28;20064;-86
2022/10/26 08:00:13;;;;;;;16.75;7.95;;;;;;;19.56;69.29;101405.09;5022414;28;20048;-85
2022/10/26 08:02:57;;;;;;;19.70;8.55;;;;;;;19.77;68.05;101407.53;5037898;28;20141;-86
2022/10/26 08:05:46;;;;;;;25.95;8.65;;;;;;;19.92;67.78;101400.34;5038106;28;20056;-86
2022/10/26 08:08:32;;;;;;;22.73;8.68;;;;;;;19.73;68.62;101397.56;5024238;28;20417;-87
2022/10/26 08:11:17;;;;;;;23.45;8.38;;;;;;;19.81;68.48;101402.09;5048183;28;20054;-86
2022/10/26 08:14:03;;;;;;;19.73;8.73;;;;;;;19.92;68.30;101403.13;5024814;28;20040;-86
2022/10/26 08:16:51;;;;;;;21.85;8.30;;;;;;;19.92;67.68;101403.91;5030660;28;20056;-86
2022/10/26 08:19:36;;;;;;;14.48;7.88;;;;;;;19.98;67.05;101415.47;5030479;28;20067;-86
2022/10/26 08:22:21;;;;;;;33.08;7.65;;;;;;;19.93;67.43;101416.56;5026962;28;20052;-86
2022/10/26 08:25:06;;;;;;;21.30;8.15;;;;;;;20.07;66.40;101410.53;5030433;28;20045;-85
2022/10/26 08:27:50;;;;;;;17.10;7.30;;;;;;;19.98;66.36;101412.72;5013155;28;20060;-84
2022/10/26 08:30:36;;;;;;;24.20;7.90;;;;;;;20.05;66.36;101418.41;5026375;28;20040;-87
2022/10/26 08:33:21;;;;;;;20.50;7.40;;;;;;;20.13;65.84;101414.63;5025174;28;20068;-85
2022/10/26 08:36:06;;;;;;;20.23;7.30;;;;;;;20.35;64.88;101422.22;5024077;28;20044;-85
2022/10/26 08:38:51;;;;;;;26.25;8.05;;;;;;;20.37;64.60;101421.84;5023607;28;20053;-87
2022/10/26 08:41:41;;;;;;;17.20;8.70;;;;;;;20.34;64.87;101423.38;5024934;28;20060;-86
2022/10/26 08:44:32;;;;;;;27.00;8.45;;;;;;;20.31;65.31;101426.88;5037827;28;20068;-87
2022/10/26 08:47:21;;;;;;;19.88;7.55;;;;;;;20.25;65.63;101419.22;5038314;28;20053;-86
2022/10/26 08:50:31;;;;;;;14.25;7.63;;;;;;;20.21;65.84;101427.44;5023367;28;20052;-86
2022/10/26 08:53:37;;;;;;;22.35;7.50;;;;;;;20.34;65.22;101428.91;5028489;28;20049;-86
2022/10/26 08:56:25;;;;;;;18.15;7.15;;;;;;;20.30;65.02;101430.78;5038582;28;20052;-86
2022/10/26 08:59:34;;;;;;;11.90;6.82;;;;;;;20.25;64.62;101441.31;5026838;28;20052;-87
2022/10/26 09:02:20;;;;;;;17.55;6.30;;;;;;;20.22;64.66;101437.28;5024874;28;20550;-87
2022/10/26 09:05:15;;;;;;;17.55;6.60;;;;;;;20.29;64.69;101434.69;5003159;28;20046;-86
2022/10/26 09:08:07;;;;;;;;;;;;;;;20.63;64.26;101438.53;5011349;28;20053;-87
2022/10/26 09:11:15;;;;;;;19.30;6.60;;;;;;;21.16;62.53;101442.31;5005073;28;19914;-86
2022/10/26 09:14:15;;;;;;;16.95;6.82;;;;;;;21.45;60.52;101442.78;5020978;22;20066;-79
2022/10/26 09:17:24;;;;;;;17.15;6.53;;;;;;;21.74;59.95;101436.50;4993390;28;20044;-79
2022/10/26 09:20:15;;;;;;;12.13;6.10;;;;;;;21.72;58.61;101438.84;4998321;28;20525;-79
2022/10/26 09:23:24;;;;;;;18.48;5.93;;;;;;;21.60;58.63;101436.28;5007416;28;20413;-79
2022/10/26 09:26:19;;;;;;;14.35;6.60;;;;;;;21.59;59.28;101435.50;5008452;28;20076;-78
2022/10/26 09:29:10;;;;;;;11.18;6.53;;;;;;;21.64;58.55;101432.41;4981763;28;20049;-79
2022/10/26 09:31:59;;;;;;;13.77;6.75;;;;;;;21.57;58.56;101429.53;5000200;28;20057;-79
2022/10/26 09:34:49;;;;;;;25.23;6.82;;;;;;;21.71;58.47;101434.50;5007895;28;20393;-80
2022/10/26 09:37:39;;;;;;;16.42;6.88;;;;;;;21.61;58.40;101435.13;5000148;28;20444;-79
2022/10/26 09:40:33;;;;;;;12.35;6.30;;;;;;;21.84;58.21;101435.84;5000450;28;20527;-80
2022/10/26 09:43:27;;;;;;;12.23;5.70;;;;;;;22.18;57.03;101440.31;4986184;28;20053;-79
2022/10/26 09:46:19;;;;;;;14.77;5.55;;;;;;;22.24;56.71;101442.75;5000620;28;20440;-81
2022/10/26 09:49:08;;;;;;;13.07;5.47;;;;;;;21.94;58.01;101438.00;5014619;28;20425;-81
2022/10/26 09:51:53;;;;;;;19.83;6.25;;;;;;;21.89;58.38;101435.53;4994866;28;20409;-81
2022/10/26 09:54:38;;;;;;;18.65;5.55;;;;;;;21.69;58.91;101437.63;4993907;28;20054;-80
2022/10/26 09:57:23;;;;;;;18.48;6.47;;;;;;;21.73;58.54;101429.38;5001787;28;20065;-80
2022/10/26 10:00:16;;;;;;;10.18;6.05;;;;;;;21.45;59.48;101434.47;4998091;28;20057;-79
2022/10/26 10:03:01;;;;;;;10.68;6.00;;;;;;;21.58;58.99;101435.88;4996771;28;20045;-79
2022/10/26 10:05:46;;;;;;;22.83;6.75;;;;;;;21.53;59.61;101439.78;4996589;28;20409;-79
2022/10/26 10:08:31;;;;;;;11.48;5.85;;;;;;;21.55;58.88;101439.38;4994334;28;20045;-79
2022/10/26 10:11:15;;;;;;;26.95;7.20;;;;;;;21.57;59.03;101437.03;4996486;28;20082;-80
2022/10/26 10:14:07;;;;;;;15.75;6.68;;;;;;;21.63;58.57;101436.38;4997052;28;20126;-80
2022/10/26 10:17:01;;;;;;;20.48;6.63;;;;;;;21.66;59.11;101435.59;4994675;28;20452;-79
2022/10/26 10:19:46;;;;;;;20.55;6.88;;;;;;;21.61;58.67;101435.13;4990129;28;20521;-79
2022/10/26 10:22:31;;;;;;;12.55;6.32;;;;;;;21.60;58.13;101430.75;4996201;28;20065;-79
2022/10/26 10:25:30;;;;;;;14.90;5.15;;;;;;;21.75;58.61;101427.03;4989172;28;20049;-81
2022/10/26 10:28:25;;;;;;;22.73;8.05;;;;;;;21.88;58.25;101431.19;4998453;28;20520;-80
2022/10/26 10:31:21;;;;;;;15.38;5.90;;;;;;;21.87;57.92;101431.56;4999440;28;20041;-79
2022/10/26 10:34:16;;;;;;;12.73;5.43;;;;;;;21.87;57.67;101428.78;4996452;28;20053;-81
2022/10/26 10:37:01;;;;;;;8.95;6.10;;;;;;;21.95;57.40;101430.50;4999773;28;20049;-81
2022/10/26 10:39:46;;;;;;;22.00;6.93;;;;;;;21.98;57.07;101429.75;4996408;28;20527;-80
2022/10/26 10:42:38;;;;;;;18.65;6.63;;;;;;;22.21;56.41;101433.22;4996164;28;20049;-81
2022/10/26 10:45:27;;;;;;;13.18;5.70;;;;;;;22.36;55.99;101428.66;4998258;28;20061;-80
2022/10/26 10:48:16;;;;;;;16.42;5.85;;;;;;;22.37;56.38;101431.06;4996528;28;20532;-80
2022/10/26 10:51:11;;;;;;;11.13;6.30;;;;;;;22.41;56.69;101433.84;4995335;28;20053;-80
2022/10/26 10:53:56;;;;;;;20.13;6.30;;;;;;;22.40;56.08;101430.28;4997171;28;20406;-82
2022/10/26 10:56:51;;;;;;;16.13;6.60;;;;;;;22.58;55.61;101424.97;4995712;28;20414;-80
2022/10/26 10:59:38;;;;;;;18.58;6.68;;;;;;;22.54;55.18;101435.22;4990942;28;20058;-80
2022/10/26 11:02:37;;;;;;;12.40;6.00;;;;;;;22.78;54.56;101431.13;4998036;28;20050;-80
2022/10/26 11:05:32;;;;;;;16.85;6.97;;;;;;;22.78;54.25;101431.13;4994357;28;20049;-78
2022/10/26 11:08:25;;;;;;;16.98;6.78;;;;;;;22.86;54.51;101419.72;4999071;28;20053;-80
2022/10/26 11:11:15;;;;;;;21.02;7.50;;;;;;;22.85;55.23;101407.06;4995676;28;20054;-82
2022/10/26 11:14:07;;;;;;;18.30;6.93;;;;;;;22.90;54.58;101415.03;4994224;28;20046;-79
2022/10/26 11:17:01;;;;;;;17.45;7.22;;;;;;;23.07;54.20;101410.00;4997712;28;20057;-80
2022/10/26 11:19:55;;;;;;;15.77;7.82;;;;;;;23.00;53.63;101411.56;4995577;28;20417;-81
2022/10/26 11:22:44;;;;;;;43.95;10.32;;;;;;;23.07;53.92;101401.69;4988521;28;20413;-80
2022/10/26 11:25:41;;;;;;;20.13;7.85;;;;;;;23.08;53.82;101404.06;4990406;28;20046;-80
2022/10/26 11:28:41;;;;;;;22.15;8.82;;;;;;;23.21;53.37;101410.91;4992653;28;20049;-81
2022/10/26 11:31:38;;;;;;;15.68;7.38;;;;;;;23.40;52.96;101409.88;4986681;28;20073;-81
2022/10/26 11:34:46;;;;;;;19.63;9.20;;;;;;;23.40;52.71;101409.88;4990539;28;20417;-79
2022/10/26 11:38:02;;;;;;;18.05;11.32;;;;;;;23.42;52.82;101410.28;4983771;28;20053;-79
2022/10/26 11:40:52;;;;;;;;;;;;;;;23.64;52.41;101403.72;4992795;28;20038;-77
2022/10/26 11:43:42;;;;;;;15.75;7.82;;;;;;;23.59;52.04;101406.88;4989668;28;19914;-80
2022/10/26 11:46:33;;;;;;;19.10;9.52;;;;;;;23.79;52.09;101408.19;4994024;28;20049;-79
2022/10/26 11:49:36;;;;;;;25.15;8.85;;;;;;;23.79;52.30;101399.06;4988367;28;20045;-80
2022/10/26 11:52:31;;;;;;;20.77;9.65;;;;;;;23.69;51.44;101400.59;4996549;28;20054;-81
2022/10/26 11:55:17;;;;;;;18.25;9.00;;;;;;;23.73;51.93;101400.59;4986491;28;20053;-80
2022/10/26 11:58:03;;;;;;;34.10;9.15;;;;;;;23.78;51.86;101403.00;4998356;28;20049;-80
2022/10/26 12:00:57;;;;;;;19.20;8.70;;;;;;;23.80;51.43;101400.66;4994102;28;20049;-82
2022/10/26 12:03:49;;;;;;;20.23;8.65;;;;;;;24.11;50.82;101393.66;4989830;28;20046;-79
2022/10/26 12:06:34;;;;;;;17.33;8.70;;;;;;;24.15;50.43;101392.47;4993583;28;20053;-80
2022/10/26 12:09:24;;;;;;;21.45;8.15;;;;;;;24.28;50.17;101398.50;4992445;28;20433;-82
2022/10/26 12:12:23;;;;;;;22.00;8.27;;;;;;;24.50;49.58;101394.59;4992654;28;20045;-81
2022/10/26 12:15:08;;;;;;;20.42;8.48;;;;;;;24.62;49.40;101393.44;4992098;28;20049;-81
2022/10/26 12:18:03;;;;;;;21.08;7.95;;;;;;;24.85;48.99;101391.09;4993690;28;20609;-79
2022/10/26 12:20:54;;;;;;;29.85;9.75;;;;;;;25.04;48.49;101395.53;4995505;28;20065;-80
2022/10/26 12:23:55;;;;;;;20.17;8.45;;;;;;;25.54;47.26;101390.69;4992205;28;20061;-81
2022/10/26 12:26:49;;;;;;;16.42;6.70;;;;;;;26.01;46.06;101392.16;4973935;28;20053;-81
2022/10/26 12:29:56;;;;;;;20.42;8.32;;;;;;;26.03;45.65;101395.34;4977353;28;20054;-81
2022/10/26 12:32:40;;;;;;;14.52;6.70;;;;;;;26.96;43.62;101385.31;4977448;28;20049;-81
2022/10/26 12:35:39;;;;;;;19.45;7.85;;;;;;;29.15;38.79;101383.84;4991024;28;20041;-80
2022/10/26 12:38:23;;;;;;;20.10;7.43;;;;;;;31.04;35.25;101396.34;4988994;28;20053;-81
2022/10/26 12:41:23;;;;;;;38.95;7.43;;;;;;;32.59;32.52;101396.03;5090689;27;1315129;-82
2022/10/26 12:44:30;;;;;;;16.38;6.28;;;;;;;33.30;30.62;101388.88;5089743;28;20040;-82
2022/10/26 12:47:27;;;;;;;17.75;6.75;;;;;;;34.29;29.17;101390.91;5092838;28;20094;-81
2022/10/26 12:50:12;;;;;;;15.80;7.47;;;;;;;33.68;30.40;101380.28;5092024;28;20122;-82
2022/10/26 12:53:07;;;;;;;30.25;7.80;;;;;;;34.15;29.33;101385.78;5079424;28;20047;-81
2022/10/26 12:56:04;;;;;;;18.85;7.68;;;;;;;32.84;31.05;101384.78;5091806;28;20047;-82
2022/10/26 12:59:01;;;;;;;14.93;7.60;;;;;;;33.79;29.76;101389.16;5092359;28;20063;-81
2022/10/26 13:01:56;;;;;;;16.55;7.60;;;;;;;32.33;31.77;101380.34;5078194;28;20043;-81
2022/10/26 13:04:59;;;;;;;12.65;6.88;;;;;;;31.97;32.63;101384.22;5077479;28;20545;-81